Profiler II — CZ2496 — position and weather

sailwx.info

Track history (hours):
 
Tides and Currents Weather Stations Pressure Air Temp Water Temp Dewpoint Dewpoint Depression Visibility Wind Speed Wind Dir Waves Ship Positions

Profiler II

Last reported at 2016-Jul-22 02:34 UTC. Time now 2016-Jul-26 12:10 UTC.
Position N 49°10' W 122°56'.

Type: Other ship. MMSI: 316002054.

Date/timePositionNaut miles runAvg speedWind from/ knotsBaromVisibWave heightAir tempDewpointWater temp
2016-Jul-22 02:34N 49°10' W 122°56'2 2.3
2016-Jul-22 01:33N 49°09' W 122°59'1 1.4
2016-Jul-22 00:34N 49°09' W 123°01'1 1.3
2016-Jul-21 23:34N 49°09' W 122°59'2 2.5
2016-Jul-21 22:33N 49°09' W 123°03'0 0.1
2016-Jul-21 21:33N 49°09' W 123°03'6 5.8
2016-Jul-21 20:33N 49°12' W 122°55'0 0.0
2016-Jul-21 19:34N 49°12' W 122°55'0 0.0
2016-Jul-20 19:21N 49°12' W 122°55'0 0.6
2016-Jul-20 18:34N 49°11' W 122°55'0 0.4
2016-Jul-20 17:33N 49°11' W 122°55'0 0.2
2016-Jul-20 16:34N 49°11' W 122°55'1 0.5
2016-Jul-20 15:33N 49°10' W 122°55'1 0.1
2016-Jul-19 23:21N 49°12' W 122°55'6 8.0
2016-Jul-19 22:34N 49°08' W 123°03'6 5.7
2016-Jul-19 21:33N 49°07' W 123°12'0 0.3
2016-Jul-19 20:33N 49°08' W 123°12'0 0.3
2016-Jul-19 19:33N 49°07' W 123°12'0 0.1
2016-Jul-19 18:33N 49°07' W 123°12'1 0.7
2016-Jul-19 17:33N 49°07' W 123°11'0 0.5
2016-Jul-19 16:32N 49°07' W 123°11'  
Track history (hours):
 
Tides and Currents Weather Stations Pressure Air Temp Water Temp Dewpoint Dewpoint Depression Visibility Wind Speed Wind Dir Waves Ship Positions

Profiler II

Last reported at 2016-Jul-22 02:34 UTC. Time now 2016-Jul-26 12:10 UTC.
Position N 49°10' W 122°56'.

Type: Other ship. MMSI: 316002054.

Date/timePositionNaut miles runAvg speedWind from/ knotsBaromVisibWave heightAir tempDewpointWater temp
2016-Jul-22 02:34N 49°10' W 122°56'2 2.3
2016-Jul-22 01:33N 49°09' W 122°59'1 1.4
2016-Jul-22 00:34N 49°09' W 123°01'1 1.3
2016-Jul-21 23:34N 49°09' W 122°59'2 2.5
2016-Jul-21 22:33N 49°09' W 123°03'0 0.1
2016-Jul-21 21:33N 49°09' W 123°03'6 5.8
2016-Jul-21 20:33N 49°12' W 122°55'0 0.0
2016-Jul-21 19:34N 49°12' W 122°55'0 0.0
2016-Jul-20 19:21N 49°12' W 122°55'0 0.6
2016-Jul-20 18:34N 49°11' W 122°55'0 0.4
2016-Jul-20 17:33N 49°11' W 122°55'0 0.2
2016-Jul-20 16:34N 49°11' W 122°55'1 0.5
2016-Jul-20 15:33N 49°10' W 122°55'1 0.1
2016-Jul-19 23:21N 49°12' W 122°55'6 8.0
2016-Jul-19 22:34N 49°08' W 123°03'6 5.7
2016-Jul-19 21:33N 49°07' W 123°12'0 0.3
2016-Jul-19 20:33N 49°08' W 123°12'0 0.3
2016-Jul-19 19:33N 49°07' W 123°12'0 0.1
2016-Jul-19 18:33N 49°07' W 123°12'1 0.7
2016-Jul-19 17:33N 49°07' W 123°11'0 0.5
2016-Jul-19 16:32N 49°07' W 123°11'  

Dump ship's entire track history